Terminal Aerodrome Forecast
Issued by NWS Cleveland, OH

Home | Current Version | Previous Version | Graphics & Text | Print | Product List | Glossary On
Versions: 1 2 3 4 5 6 7 8 9 10 11 12 13 14 15 16 17 18 19 20 21
215
FTUS41 KCLE 140910 AAB
TAFTOL
TAF AMD
KTOL 140910Z 1409/1506 33008KT P6SM OVC015
     FM141600 32008KT P6SM SCT035
     FM142200 28004KT P6SM SCT120 BKN250=

USA.gov is the U.S. government's official web portal to all federal, state and local government web resources and services.